sensor_id;sensor_type;location;lat;lon;timestamp;P1;durP1;ratioP1;P2;durP2;ratioP2
40995;SDS011;26723;57.478;12.066;2023-04-24T00:00:15;14.07;;;11.63;;
40995;SDS011;26723;57.478;12.066;2023-04-24T00:03:24;16.30;;;11.10;;
40995;SDS011;26723;57.478;12.066;2023-04-24T00:06:36;16.17;;;11.83;;
40995;SDS011;26723;57.478;12.066;2023-04-24T00:09:45;14.63;;;11.00;;
40995;SDS011;26723;57.478;12.066;2023-04-24T00:12:53;13.50;;;10.60;;
40995;SDS011;26723;57.478;12.066;2023-04-24T00:16:02;14.33;;;10.57;;
40995;SDS011;26723;57.478;12.066;2023-04-24T00:19:11;16.30;;;11.87;;
40995;SDS011;26723;57.478;12.066;2023-04-24T00:22:20;14.23;;;11.00;;
40995;SDS011;26723;57.478;12.066;2023-04-24T00:25:29;16.77;;;11.03;;
40995;SDS011;26723;57.478;12.066;2023-04-24T00:28:38;15.53;;;10.80;;
40995;SDS011;26723;57.478;12.066;2023-04-24T00:31:47;14.77;;;11.37;;
40995;SDS011;26723;57.478;12.066;2023-04-24T00:34:55;14.23;;;11.27;;
40995;SDS011;26723;57.478;12.066;2023-04-24T00:38:05;14.07;;;10.83;;
40995;SDS011;26723;57.478;12.066;2023-04-24T00:41:14;15.37;;;10.63;;
40995;SDS011;26723;57.478;12.066;2023-04-24T00:44:23;13.23;;;11.00;;
40995;SDS011;26723;57.478;12.066;2023-04-24T00:47:31;16.13;;;11.37;;
40995;SDS011;26723;57.478;12.066;2023-04-24T00:50:41;11.60;;;9.90;;
40995;SDS011;26723;57.478;12.066;2023-04-24T00:53:51;14.13;;;10.47;;
40995;SDS011;26723;57.478;12.066;2023-04-24T00:56:59;13.77;;;10.33;;
40995;SDS011;26723;57.478;12.066;2023-04-24T01:03:39;13.47;;;10.60;;
40995;SDS011;26723;57.478;12.066;2023-04-24T01:06:49;14.37;;;9.90;;
40995;SDS011;26723;57.478;12.066;2023-04-24T01:10:00;15.47;;;10.67;;
40995;SDS011;26723;57.478;12.066;2023-04-24T01:13:09;13.50;;;9.70;;
40995;SDS011;26723;57.478;12.066;2023-04-24T01:16:17;14.53;;;10.03;;
40995;SDS011;26723;57.478;12.066;2023-04-24T01:19:27;13.73;;;10.30;;
40995;SDS011;26723;57.478;12.066;2023-04-24T01:22:37;15.73;;;11.37;;
40995;SDS011;26723;57.478;12.066;2023-04-24T01:25:45;13.30;;;10.60;;
40995;SDS011;26723;57.478;12.066;2023-04-24T01:28:54;14.13;;;10.73;;
40995;SDS011;26723;57.478;12.066;2023-04-24T01:32:03;10.53;;;9.33;;
40995;SDS011;26723;57.478;12.066;2023-04-24T01:35:12;12.93;;;9.97;;
40995;SDS011;26723;57.478;12.066;2023-04-24T01:38:22;13.13;;;9.87;;
40995;SDS011;26723;57.478;12.066;2023-04-24T01:41:31;13.67;;;10.07;;
40995;SDS011;26723;57.478;12.066;2023-04-24T01:44:40;13.60;;;10.60;;
40995;SDS011;26723;57.478;12.066;2023-04-24T01:47:49;10.80;;;9.70;;
40995;SDS011;26723;57.478;12.066;2023-04-24T01:50:58;13.43;;;9.63;;
40995;SDS011;26723;57.478;12.066;2023-04-24T01:54:08;13.67;;;9.80;;
40995;SDS011;26723;57.478;12.066;2023-04-24T01:57:16;13.77;;;9.90;;
40995;SDS011;26723;57.478;12.066;2023-04-24T02:00:25;13.97;;;10.47;;
40995;SDS011;26723;57.478;12.066;2023-04-24T02:03:33;12.57;;;10.07;;
40995;SDS011;26723;57.478;12.066;2023-04-24T02:06:42;11.77;;;9.80;;
40995;SDS011;26723;57.478;12.066;2023-04-24T02:09:52;13.20;;;9.40;;
40995;SDS011;26723;57.478;12.066;2023-04-24T02:13:01;10.47;;;9.13;;
40995;SDS011;26723;57.478;12.066;2023-04-24T02:16:11;13.20;;;9.67;;
40995;SDS011;26723;57.478;12.066;2023-04-24T02:19:19;11.93;;;9.13;;
40995;SDS011;26723;57.478;12.066;2023-04-24T02:22:29;13.63;;;9.97;;
40995;SDS011;26723;57.478;12.066;2023-04-24T02:25:42;13.70;;;9.30;;
40995;SDS011;26723;57.478;12.066;2023-04-24T02:28:50;12.33;;;9.57;;
40995;SDS011;26723;57.478;12.066;2023-04-24T02:31:59;12.27;;;9.90;;
40995;SDS011;26723;57.478;12.066;2023-04-24T02:35:08;11.20;;;9.13;;
40995;SDS011;26723;57.478;12.066;2023-04-24T02:38:17;12.00;;;9.67;;
40995;SDS011;26723;57.478;12.066;2023-04-24T02:41:27;10.87;;;9.13;;
40995;SDS011;26723;57.478;12.066;2023-04-24T02:44:38;12.50;;;9.40;;
40995;SDS011;26723;57.478;12.066;2023-04-24T02:47:47;10.90;;;9.60;;
40995;SDS011;26723;57.478;12.066;2023-04-24T02:50:55;12.73;;;9.70;;
40995;SDS011;26723;57.478;12.066;2023-04-24T02:54:04;12.17;;;9.50;;
40995;SDS011;26723;57.478;12.066;2023-04-24T02:57:14;10.03;;;8.80;;
40995;SDS011;26723;57.478;12.066;2023-04-24T03:00:23;13.47;;;9.33;;
40995;SDS011;26723;57.478;12.066;2023-04-24T03:03:31;10.33;;;9.20;;
40995;SDS011;26723;57.478;12.066;2023-04-24T03:06:40;11.77;;;9.27;;
40995;SDS011;26723;57.478;12.066;2023-04-24T03:09:48;10.83;;;8.87;;
40995;SDS011;26723;57.478;12.066;2023-04-24T03:12:58;12.47;;;9.53;;
40995;SDS011;26723;57.478;12.066;2023-04-24T03:16:06;11.00;;;8.90;;
40995;SDS011;26723;57.478;12.066;2023-04-24T03:19:15;11.13;;;8.80;;
40995;SDS011;26723;57.478;12.066;2023-04-24T03:22:46;10.33;;;8.27;;
40995;SDS011;26723;57.478;12.066;2023-04-24T03:25:55;11.60;;;9.10;;
40995;SDS011;26723;57.478;12.066;2023-04-24T03:29:05;9.60;;;8.30;;
40995;SDS011;26723;57.478;12.066;2023-04-24T03:32:13;11.53;;;8.23;;
40995;SDS011;26723;57.478;12.066;2023-04-24T03:35:22;11.40;;;8.63;;
40995;SDS011;26723;57.478;12.066;2023-04-24T03:38:32;12.80;;;9.10;;
40995;SDS011;26723;57.478;12.066;2023-04-24T03:41:56;11.70;;;8.50;;
40995;SDS011;26723;57.478;12.066;2023-04-24T03:45:16;10.60;;;8.70;;
40995;SDS011;26723;57.478;12.066;2023-04-24T03:48:28;10.27;;;8.33;;
40995;SDS011;26723;57.478;12.066;2023-04-24T03:51:36;10.30;;;8.37;;
40995;SDS011;26723;57.478;12.066;2023-04-24T03:54:58;10.47;;;8.37;;
40995;SDS011;26723;57.478;12.066;2023-04-24T03:58:09;11.50;;;9.23;;
40995;SDS011;26723;57.478;12.066;2023-04-24T04:01:19;11.60;;;9.03;;
40995;SDS011;26723;57.478;12.066;2023-04-24T04:04:37;9.93;;;8.47;;
40995;SDS011;26723;57.478;12.066;2023-04-24T04:07:46;9.50;;;8.50;;
40995;SDS011;26723;57.478;12.066;2023-04-24T04:10:54;10.93;;;8.20;;
40995;SDS011;26723;57.478;12.066;2023-04-24T04:14:03;9.30;;;8.30;;
40995;SDS011;26723;57.478;12.066;2023-04-24T04:17:15;11.77;;;8.70;;
40995;SDS011;26723;57.478;12.066;2023-04-24T04:20:24;10.50;;;8.07;;
40995;SDS011;26723;57.478;12.066;2023-04-24T04:23:32;11.90;;;8.13;;
40995;SDS011;26723;57.478;12.066;2023-04-24T04:26:47;9.13;;;8.10;;
40995;SDS011;26723;57.478;12.066;2023-04-24T04:30:09;8.73;;;7.67;;
40995;SDS011;26723;57.478;12.066;2023-04-24T04:33:27;12.37;;;8.73;;
40995;SDS011;26723;57.478;12.066;2023-04-24T04:36:36;8.90;;;7.67;;
40995;SDS011;26723;57.478;12.066;2023-04-24T04:40:13;9.10;;;8.00;;
40995;SDS011;26723;57.478;12.066;2023-04-24T04:43:30;9.70;;;8.70;;
40995;SDS011;26723;57.478;12.066;2023-04-24T04:46:39;12.33;;;8.60;;
40995;SDS011;26723;57.478;12.066;2023-04-24T04:50:00;10.63;;;8.27;;
40995;SDS011;26723;57.478;12.066;2023-04-24T04:53:11;10.10;;;8.57;;
40995;SDS011;26723;57.478;12.066;2023-04-24T04:56:20;7.97;;;7.17;;
40995;SDS011;26723;57.478;12.066;2023-04-24T04:59:29;10.70;;;8.80;;
40995;SDS011;26723;57.478;12.066;2023-04-24T05:02:42;8.43;;;7.63;;
40995;SDS011;26723;57.478;12.066;2023-04-24T05:05:52;9.00;;;7.70;;
40995;SDS011;26723;57.478;12.066;2023-04-24T05:09:02;9.93;;;8.27;;
40995;SDS011;26723;57.478;12.066;2023-04-24T05:12:21;11.57;;;7.43;;
40995;SDS011;26723;57.478;12.066;2023-04-24T05:15:32;9.90;;;7.60;;
40995;SDS011;26723;57.478;12.066;2023-04-24T05:18:40;9.47;;;7.97;;
40995;SDS011;26723;57.478;12.066;2023-04-24T05:21:54;9.60;;;7.60;;
40995;SDS011;26723;57.478;12.066;2023-04-24T05:25:05;8.70;;;7.70;;
40995;SDS011;26723;57.478;12.066;2023-04-24T05:28:18;8.40;;;7.33;;
40995;SDS011;26723;57.478;12.066;2023-04-24T05:31:39;8.20;;;7.30;;
40995;SDS011;26723;57.478;12.066;2023-04-24T05:34:48;8.83;;;7.60;;
40995;SDS011;26723;57.478;12.066;2023-04-24T05:37:58;8.13;;;7.10;;
40995;SDS011;26723;57.478;12.066;2023-04-24T05:41:06;9.83;;;7.80;;
40995;SDS011;26723;57.478;12.066;2023-04-24T05:44:15;9.70;;;7.77;;
40995;SDS011;26723;57.478;12.066;2023-04-24T05:47:23;9.60;;;7.10;;
40995;SDS011;26723;57.478;12.066;2023-04-24T05:50:33;9.37;;;8.37;;
40995;SDS011;26723;57.478;12.066;2023-04-24T05:53:44;9.10;;;7.57;;
40995;SDS011;26723;57.478;12.066;2023-04-24T05:56:53;8.40;;;7.60;;
40995;SDS011;26723;57.478;12.066;2023-04-24T06:00:13;7.80;;;6.80;;
40995;SDS011;26723;57.478;12.066;2023-04-24T06:03:32;10.97;;;7.20;;
40995;SDS011;26723;57.478;12.066;2023-04-24T06:06:42;9.60;;;7.30;;
40995;SDS011;26723;57.478;12.066;2023-04-24T06:09:52;8.90;;;6.67;;
40995;SDS011;26723;57.478;12.066;2023-04-24T06:13:01;7.87;;;7.07;;
40995;SDS011;26723;57.478;12.066;2023-04-24T06:16:11;9.23;;;7.00;;
40995;SDS011;26723;57.478;12.066;2023-04-24T06:19:24;9.13;;;7.10;;
40995;SDS011;26723;57.478;12.066;2023-04-24T06:22:33;8.83;;;6.97;;
40995;SDS011;26723;57.478;12.066;2023-04-24T06:25:43;7.80;;;7.00;;
40995;SDS011;26723;57.478;12.066;2023-04-24T06:28:52;7.80;;;7.00;;
40995;SDS011;26723;57.478;12.066;2023-04-24T06:32:01;7.77;;;6.93;;
40995;SDS011;26723;57.478;12.066;2023-04-24T06:35:11;8.83;;;7.80;;
40995;SDS011;26723;57.478;12.066;2023-04-24T06:38:19;7.67;;;6.93;;
40995;SDS011;26723;57.478;12.066;2023-04-24T06:41:29;7.77;;;6.97;;
40995;SDS011;26723;57.478;12.066;2023-04-24T06:44:38;8.70;;;7.13;;
40995;SDS011;26723;57.478;12.066;2023-04-24T06:47:48;7.33;;;6.60;;
40995;SDS011;26723;57.478;12.066;2023-04-24T06:50:57;7.70;;;7.00;;
40995;SDS011;26723;57.478;12.066;2023-04-24T06:54:06;8.47;;;6.60;;
40995;SDS011;26723;57.478;12.066;2023-04-24T06:57:15;7.70;;;7.00;;
40995;SDS011;26723;57.478;12.066;2023-04-24T07:00:25;7.83;;;7.03;;
40995;SDS011;26723;57.478;12.066;2023-04-24T07:03:33;8.00;;;7.20;;
40995;SDS011;26723;57.478;12.066;2023-04-24T07:06:42;8.83;;;6.73;;
40995;SDS011;26723;57.478;12.066;2023-04-24T07:09:50;8.67;;;7.13;;
40995;SDS011;26723;57.478;12.066;2023-04-24T07:13:00;8.50;;;6.77;;
40995;SDS011;26723;57.478;12.066;2023-04-24T07:16:09;8.20;;;7.40;;
40995;SDS011;26723;57.478;12.066;2023-04-24T07:19:17;8.30;;;7.40;;
40995;SDS011;26723;57.478;12.066;2023-04-24T07:22:26;7.93;;;7.03;;
40995;SDS011;26723;57.478;12.066;2023-04-24T07:25:34;8.30;;;7.50;;
40995;SDS011;26723;57.478;12.066;2023-04-24T07:28:44;9.67;;;8.20;;
40995;SDS011;26723;57.478;12.066;2023-04-24T07:31:52;7.90;;;7.10;;
40995;SDS011;26723;57.478;12.066;2023-04-24T07:35:01;10.37;;;7.77;;
40995;SDS011;26723;57.478;12.066;2023-04-24T07:38:09;8.80;;;7.50;;
40995;SDS011;26723;57.478;12.066;2023-04-24T07:41:18;8.20;;;7.40;;
40995;SDS011;26723;57.478;12.066;2023-04-24T07:44:28;9.07;;;7.90;;
40995;SDS011;26723;57.478;12.066;2023-04-24T07:47:37;8.53;;;7.50;;
40995;SDS011;26723;57.478;12.066;2023-04-24T07:50:46;8.30;;;7.47;;
40995;SDS011;26723;57.478;12.066;2023-04-24T07:53:54;8.17;;;7.37;;
40995;SDS011;26723;57.478;12.066;2023-04-24T07:57:02;8.97;;;7.33;;
40995;SDS011;26723;57.478;12.066;2023-04-24T08:00:15;8.40;;;7.50;;
40995;SDS011;26723;57.478;12.066;2023-04-24T08:03:23;8.67;;;7.77;;
40995;SDS011;26723;57.478;12.066;2023-04-24T08:06:32;10.43;;;8.63;;
40995;SDS011;26723;57.478;12.066;2023-04-24T08:09:40;9.27;;;7.50;;
40995;SDS011;26723;57.478;12.066;2023-04-24T08:12:49;9.23;;;7.97;;
40995;SDS011;26723;57.478;12.066;2023-04-24T08:15:59;9.70;;;7.97;;
40995;SDS011;26723;57.478;12.066;2023-04-24T08:19:08;7.77;;;7.07;;
40995;SDS011;26723;57.478;12.066;2023-04-24T08:22:16;7.87;;;7.07;;
40995;SDS011;26723;57.478;12.066;2023-04-24T08:25:25;8.13;;;7.23;;
40995;SDS011;26723;57.478;12.066;2023-04-24T08:28:33;7.67;;;6.83;;
40995;SDS011;26723;57.478;12.066;2023-04-24T08:31:43;8.87;;;7.10;;
40995;SDS011;26723;57.478;12.066;2023-04-24T08:34:52;7.17;;;6.47;;
40995;SDS011;26723;57.478;12.066;2023-04-24T08:38:02;7.67;;;6.83;;
40995;SDS011;26723;57.478;12.066;2023-04-24T08:41:11;6.67;;;6.07;;
40995;SDS011;26723;57.478;12.066;2023-04-24T08:44:21;6.90;;;6.30;;
40995;SDS011;26723;57.478;12.066;2023-04-24T08:47:31;6.70;;;6.10;;
40995;SDS011;26723;57.478;12.066;2023-04-24T08:50:42;6.67;;;6.07;;
40995;SDS011;26723;57.478;12.066;2023-04-24T08:53:51;5.87;;;5.27;;
40995;SDS011;26723;57.478;12.066;2023-04-24T08:57:02;6.20;;;5.60;;
40995;SDS011;26723;57.478;12.066;2023-04-24T09:00:11;6.70;;;6.00;;
40995;SDS011;26723;57.478;12.066;2023-04-24T09:03:22;6.50;;;5.37;;
40995;SDS011;26723;57.478;12.066;2023-04-24T09:06:30;6.00;;;5.50;;
40995;SDS011;26723;57.478;12.066;2023-04-24T09:09:39;5.90;;;5.30;;
40995;SDS011;26723;57.478;12.066;2023-04-24T09:12:50;5.60;;;5.10;;
40995;SDS011;26723;57.478;12.066;2023-04-24T09:15:59;5.37;;;4.83;;
40995;SDS011;26723;57.478;12.066;2023-04-24T09:19:09;6.17;;;5.27;;
40995;SDS011;26723;57.478;12.066;2023-04-24T09:22:17;5.97;;;5.37;;
40995;SDS011;26723;57.478;12.066;2023-04-24T09:25:30;5.60;;;5.10;;
40995;SDS011;26723;57.478;12.066;2023-04-24T09:28:40;5.60;;;5.10;;
40995;SDS011;26723;57.478;12.066;2023-04-24T09:31:50;6.07;;;5.47;;
40995;SDS011;26723;57.478;12.066;2023-04-24T09:35:07;5.90;;;5.40;;
40995;SDS011;26723;57.478;12.066;2023-04-24T09:38:17;5.63;;;5.13;;
40995;SDS011;26723;57.478;12.066;2023-04-24T09:41:26;5.23;;;4.83;;
40995;SDS011;26723;57.478;12.066;2023-04-24T09:44:35;5.80;;;5.30;;
40995;SDS011;26723;57.478;12.066;2023-04-24T09:47:43;5.80;;;5.10;;
40995;SDS011;26723;57.478;12.066;2023-04-24T09:50:54;5.37;;;4.87;;
40995;SDS011;26723;57.478;12.066;2023-04-24T09:54:02;5.43;;;4.93;;
40995;SDS011;26723;57.478;12.066;2023-04-24T09:57:11;5.70;;;5.20;;
40995;SDS011;26723;57.478;12.066;2023-04-24T10:00:22;5.50;;;5.00;;
40995;SDS011;26723;57.478;12.066;2023-04-24T10:03:33;5.50;;;5.10;;
40995;SDS011;26723;57.478;12.066;2023-04-24T10:06:43;5.03;;;4.63;;
40995;SDS011;26723;57.478;12.066;2023-04-24T10:09:52;5.17;;;4.60;;
40995;SDS011;26723;57.478;12.066;2023-04-24T10:13:01;5.20;;;4.80;;
40995;SDS011;26723;57.478;12.066;2023-04-24T10:16:11;5.40;;;5.00;;
40995;SDS011;26723;57.478;12.066;2023-04-24T10:19:20;5.60;;;5.10;;
40995;SDS011;26723;57.478;12.066;2023-04-24T10:22:30;5.27;;;4.87;;
40995;SDS011;26723;57.478;12.066;2023-04-24T10:25:39;5.97;;;5.43;;
40995;SDS011;26723;57.478;12.066;2023-04-24T10:28:48;5.10;;;4.70;;
40995;SDS011;26723;57.478;12.066;2023-04-24T10:31:57;5.10;;;4.60;;
40995;SDS011;26723;57.478;12.066;2023-04-24T10:38:16;5.57;;;5.17;;
40995;SDS011;26723;57.478;12.066;2023-04-24T10:41:32;4.80;;;4.50;;
40995;SDS011;26723;57.478;12.066;2023-04-24T10:44:41;5.10;;;4.60;;
40995;SDS011;26723;57.478;12.066;2023-04-24T10:47:53;5.30;;;4.90;;
40995;SDS011;26723;57.478;12.066;2023-04-24T10:51:05;5.13;;;4.40;;
40995;SDS011;26723;57.478;12.066;2023-04-24T10:54:26;5.20;;;4.70;;
40995;SDS011;26723;57.478;12.066;2023-04-24T10:57:36;5.50;;;5.07;;
40995;SDS011;26723;57.478;12.066;2023-04-24T11:00:48;5.03;;;4.67;;
40995;SDS011;26723;57.478;12.066;2023-04-24T11:04:04;5.22;;;4.82;;
40995;SDS011;26723;57.478;12.066;2023-04-24T11:07:13;4.93;;;4.53;;
40995;SDS011;26723;57.478;12.066;2023-04-24T11:10:26;4.90;;;4.37;;
40995;SDS011;26723;57.478;12.066;2023-04-24T11:17:26;4.57;;;4.20;;
40995;SDS011;26723;57.478;12.066;2023-04-24T11:20:41;5.10;;;4.70;;
40995;SDS011;26723;57.478;12.066;2023-04-24T11:23:50;4.53;;;4.23;;
40995;SDS011;26723;57.478;12.066;2023-04-24T11:27:05;4.70;;;4.40;;
40995;SDS011;26723;57.478;12.066;2023-04-24T11:30:16;4.30;;;4.00;;
40995;SDS011;26723;57.478;12.066;2023-04-24T11:33:25;4.37;;;4.07;;
40995;SDS011;26723;57.478;12.066;2023-04-24T11:36:34;4.40;;;4.10;;
40995;SDS011;26723;57.478;12.066;2023-04-24T11:39:44;3.90;;;3.70;;
40995;SDS011;26723;57.478;12.066;2023-04-24T11:42:54;4.15;;;3.85;;
40995;SDS011;26723;57.478;12.066;2023-04-24T11:46:03;3.65;;;3.38;;
40995;SDS011;26723;57.478;12.066;2023-04-24T11:49:12;4.45;;;4.05;;
40995;SDS011;26723;57.478;12.066;2023-04-24T11:52:21;3.70;;;3.42;;
40995;SDS011;26723;57.478;12.066;2023-04-24T11:55:29;3.80;;;3.50;;
40995;SDS011;26723;57.478;12.066;2023-04-24T11:58:39;4.07;;;3.70;;
40995;SDS011;26723;57.478;12.066;2023-04-24T12:01:48;3.60;;;3.40;;
40995;SDS011;26723;57.478;12.066;2023-04-24T12:04:56;3.87;;;3.60;;
40995;SDS011;26723;57.478;12.066;2023-04-24T12:08:06;3.15;;;2.85;;
40995;SDS011;26723;57.478;12.066;2023-04-24T12:11:15;2.88;;;2.67;;
40995;SDS011;26723;57.478;12.066;2023-04-24T12:14:27;3.10;;;2.90;;
40995;SDS011;26723;57.478;12.066;2023-04-24T12:17:35;3.13;;;2.92;;
40995;SDS011;26723;57.478;12.066;2023-04-24T12:20:44;2.70;;;2.60;;
40995;SDS011;26723;57.478;12.066;2023-04-24T12:23:53;2.70;;;2.50;;
40995;SDS011;26723;57.478;12.066;2023-04-24T12:27:02;2.97;;;2.77;;
40995;SDS011;26723;57.478;12.066;2023-04-24T12:30:13;2.83;;;2.63;;
40995;SDS011;26723;57.478;12.066;2023-04-24T12:33:22;3.05;;;2.85;;
40995;SDS011;26723;57.478;12.066;2023-04-24T12:36:31;3.10;;;2.90;;
40995;SDS011;26723;57.478;12.066;2023-04-24T12:39:39;3.17;;;2.97;;
40995;SDS011;26723;57.478;12.066;2023-04-24T12:43:12;2.83;;;2.70;;
40995;SDS011;26723;57.478;12.066;2023-04-24T12:46:23;3.08;;;2.88;;
40995;SDS011;26723;57.478;12.066;2023-04-24T12:49:31;3.50;;;3.30;;
40995;SDS011;26723;57.478;12.066;2023-04-24T12:52:40;3.60;;;3.30;;
40995;SDS011;26723;57.478;12.066;2023-04-24T12:55:49;3.30;;;3.10;;
40995;SDS011;26723;57.478;12.066;2023-04-24T12:58:59;4.55;;;3.47;;
40995;SDS011;26723;57.478;12.066;2023-04-24T13:02:09;4.10;;;3.80;;
40995;SDS011;26723;57.478;12.066;2023-04-24T13:05:18;4.00;;;3.70;;
40995;SDS011;26723;57.478;12.066;2023-04-24T13:08:27;4.00;;;3.70;;
40995;SDS011;26723;57.478;12.066;2023-04-24T13:11:35;4.23;;;3.83;;
40995;SDS011;26723;57.478;12.066;2023-04-24T13:14:43;4.60;;;4.10;;
40995;SDS011;26723;57.478;12.066;2023-04-24T13:17:54;4.28;;;3.97;;
40995;SDS011;26723;57.478;12.066;2023-04-24T13:21:02;4.10;;;3.80;;
40995;SDS011;26723;57.478;12.066;2023-04-24T13:24:11;4.37;;;3.80;;
40995;SDS011;26723;57.478;12.066;2023-04-24T13:27:19;4.40;;;4.00;;
40995;SDS011;26723;57.478;12.066;2023-04-24T13:30:28;4.43;;;4.07;;
40995;SDS011;26723;57.478;12.066;2023-04-24T13:33:38;5.38;;;4.47;;
40995;SDS011;26723;57.478;12.066;2023-04-24T13:36:46;4.37;;;3.97;;
40995;SDS011;26723;57.478;12.066;2023-04-24T13:39:58;4.68;;;4.38;;
40995;SDS011;26723;57.478;12.066;2023-04-24T13:43:06;4.90;;;4.45;;
40995;SDS011;26723;57.478;12.066;2023-04-24T13:46:15;4.83;;;4.43;;
40995;SDS011;26723;57.478;12.066;2023-04-24T13:49:25;5.33;;;4.80;;
40995;SDS011;26723;57.478;12.066;2023-04-24T13:52:34;4.50;;;4.20;;
40995;SDS011;26723;57.478;12.066;2023-04-24T13:55:42;5.27;;;4.77;;
40995;SDS011;26723;57.478;12.066;2023-04-24T13:58:51;4.95;;;4.35;;
40995;SDS011;26723;57.478;12.066;2023-04-24T14:02:01;6.03;;;4.55;;
40995;SDS011;26723;57.478;12.066;2023-04-24T14:05:10;4.97;;;4.47;;
40995;SDS011;26723;57.478;12.066;2023-04-24T14:08:20;5.20;;;4.70;;
40995;SDS011;26723;57.478;12.066;2023-04-24T14:11:29;4.93;;;4.47;;
40995;SDS011;26723;57.478;12.066;2023-04-24T14:14:37;4.97;;;4.67;;
40995;SDS011;26723;57.478;12.066;2023-04-24T14:17:46;4.50;;;4.10;;
40995;SDS011;26723;57.478;12.066;2023-04-24T14:20:56;5.07;;;4.60;;
40995;SDS011;26723;57.478;12.066;2023-04-24T14:24:05;5.37;;;4.97;;
40995;SDS011;26723;57.478;12.066;2023-04-24T14:27:14;5.23;;;4.60;;
40995;SDS011;26723;57.478;12.066;2023-04-24T14:30:22;5.32;;;4.40;;
40995;SDS011;26723;57.478;12.066;2023-04-24T14:33:30;4.47;;;4.07;;
40995;SDS011;26723;57.478;12.066;2023-04-24T14:36:40;4.70;;;4.30;;
40995;SDS011;26723;57.478;12.066;2023-04-24T14:39:49;4.23;;;3.93;;
40995;SDS011;26723;57.478;12.066;2023-04-24T14:43:17;4.78;;;4.38;;
40995;SDS011;26723;57.478;12.066;2023-04-24T14:46:26;4.57;;;4.17;;
40995;SDS011;26723;57.478;12.066;2023-04-24T14:49:34;4.43;;;4.03;;
40995;SDS011;26723;57.478;12.066;2023-04-24T14:52:44;4.57;;;4.17;;
40995;SDS011;26723;57.478;12.066;2023-04-24T14:55:53;4.47;;;4.07;;
40995;SDS011;26723;57.478;12.066;2023-04-24T14:59:01;5.28;;;4.30;;
40995;SDS011;26723;57.478;12.066;2023-04-24T15:02:10;3.90;;;3.67;;
40995;SDS011;26723;57.478;12.066;2023-04-24T15:05:23;4.32;;;4.00;;
40995;SDS011;26723;57.478;12.066;2023-04-24T15:08:33;4.13;;;3.78;;
40995;SDS011;26723;57.478;12.066;2023-04-24T15:11:42;3.90;;;3.55;;
40995;SDS011;26723;57.478;12.066;2023-04-24T15:14:50;3.63;;;3.33;;
40995;SDS011;26723;57.478;12.066;2023-04-24T15:17:58;3.40;;;3.20;;
40995;SDS011;26723;57.478;12.066;2023-04-24T15:21:07;3.42;;;3.22;;
40995;SDS011;26723;57.478;12.066;2023-04-24T15:24:17;3.70;;;3.40;;
40995;SDS011;26723;57.478;12.066;2023-04-24T15:27:25;3.80;;;3.50;;
40995;SDS011;26723;57.478;12.066;2023-04-24T15:30:34;4.17;;;3.77;;
40995;SDS011;26723;57.478;12.066;2023-04-24T15:33:42;3.90;;;3.60;;
40995;SDS011;26723;57.478;12.066;2023-04-24T15:36:51;4.00;;;3.70;;
40995;SDS011;26723;57.478;12.066;2023-04-24T15:40:01;3.72;;;3.42;;
40995;SDS011;26723;57.478;12.066;2023-04-24T15:43:11;3.55;;;3.22;;
40995;SDS011;26723;57.478;12.066;2023-04-24T15:46:20;3.93;;;3.63;;
40995;SDS011;26723;57.478;12.066;2023-04-24T15:49:28;4.10;;;3.70;;
40995;SDS011;26723;57.478;12.066;2023-04-24T15:52:38;3.70;;;3.40;;
40995;SDS011;26723;57.478;12.066;2023-04-24T15:55:48;3.80;;;3.47;;
40995;SDS011;26723;57.478;12.066;2023-04-24T15:58:57;4.13;;;3.73;;
40995;SDS011;26723;57.478;12.066;2023-04-24T16:02:06;3.97;;;3.57;;
40995;SDS011;26723;57.478;12.066;2023-04-24T16:05:17;3.90;;;3.60;;
40995;SDS011;26723;57.478;12.066;2023-04-24T16:08:28;3.97;;;3.67;;
40995;SDS011;26723;57.478;12.066;2023-04-24T16:11:38;3.97;;;3.70;;
40995;SDS011;26723;57.478;12.066;2023-04-24T16:14:46;4.40;;;3.47;;
40995;SDS011;26723;57.478;12.066;2023-04-24T16:17:54;4.37;;;3.97;;
40995;SDS011;26723;57.478;12.066;2023-04-24T16:21:04;3.97;;;3.67;;
40995;SDS011;26723;57.478;12.066;2023-04-24T16:24:14;3.93;;;3.60;;
40995;SDS011;26723;57.478;12.066;2023-04-24T16:27:24;3.80;;;3.50;;
40995;SDS011;26723;57.478;12.066;2023-04-24T16:30:32;3.97;;;3.60;;
40995;SDS011;26723;57.478;12.066;2023-04-24T16:33:42;5.00;;;4.07;;
40995;SDS011;26723;57.478;12.066;2023-04-24T16:36:50;4.60;;;4.20;;
40995;SDS011;26723;57.478;12.066;2023-04-24T16:39:59;4.53;;;3.70;;
40995;SDS011;26723;57.478;12.066;2023-04-24T16:43:09;4.00;;;3.70;;
40995;SDS011;26723;57.478;12.066;2023-04-24T16:46:17;4.03;;;3.70;;
40995;SDS011;26723;57.478;12.066;2023-04-24T16:49:25;4.03;;;3.60;;
40995;SDS011;26723;57.478;12.066;2023-04-24T16:52:36;4.23;;;3.83;;
40995;SDS011;26723;57.478;12.066;2023-04-24T16:55:45;4.33;;;4.03;;
40995;SDS011;26723;57.478;12.066;2023-04-24T16:58:58;3.80;;;3.50;;
40995;SDS011;26723;57.478;12.066;2023-04-24T17:02:08;3.80;;;3.50;;
40995;SDS011;26723;57.478;12.066;2023-04-24T17:05:16;3.63;;;3.33;;
40995;SDS011;26723;57.478;12.066;2023-04-24T17:08:28;4.23;;;3.83;;
40995;SDS011;26723;57.478;12.066;2023-04-24T17:11:38;4.80;;;4.03;;
40995;SDS011;26723;57.478;12.066;2023-04-24T17:14:47;4.10;;;3.70;;
40995;SDS011;26723;57.478;12.066;2023-04-24T17:17:56;4.30;;;3.83;;
40995;SDS011;26723;57.478;12.066;2023-04-24T17:21:05;4.20;;;3.67;;
40995;SDS011;26723;57.478;12.066;2023-04-24T17:24:13;4.07;;;3.77;;
40995;SDS011;26723;57.478;12.066;2023-04-24T17:27:22;3.28;;;3.08;;
40995;SDS011;26723;57.478;12.066;2023-04-24T17:30:32;4.22;;;3.92;;
40995;SDS011;26723;57.478;12.066;2023-04-24T17:33:40;4.03;;;3.72;;
40995;SDS011;26723;57.478;12.066;2023-04-24T17:36:48;4.40;;;3.63;;
40995;SDS011;26723;57.478;12.066;2023-04-24T17:39:57;3.53;;;3.30;;
40995;SDS011;26723;57.478;12.066;2023-04-24T17:43:05;3.93;;;3.63;;
40995;SDS011;26723;57.478;12.066;2023-04-24T17:46:15;3.73;;;3.43;;
40995;SDS011;26723;57.478;12.066;2023-04-24T17:49:24;3.73;;;3.43;;
40995;SDS011;26723;57.478;12.066;2023-04-24T17:52:32;3.72;;;3.45;;
40995;SDS011;26723;57.478;12.066;2023-04-24T17:55:41;3.73;;;3.43;;
40995;SDS011;26723;57.478;12.066;2023-04-24T17:58:49;3.90;;;3.60;;
40995;SDS011;26723;57.478;12.066;2023-04-24T18:02:05;4.20;;;3.70;;
40995;SDS011;26723;57.478;12.066;2023-04-24T18:05:13;4.10;;;3.67;;
40995;SDS011;26723;57.478;12.066;2023-04-24T18:08:22;4.40;;;4.00;;
40995;SDS011;26723;57.478;12.066;2023-04-24T18:11:30;4.15;;;3.78;;
40995;SDS011;26723;57.478;12.066;2023-04-24T18:14:40;3.95;;;3.65;;
40995;SDS011;26723;57.478;12.066;2023-04-24T18:17:49;4.50;;;4.10;;
40995;SDS011;26723;57.478;12.066;2023-04-24T18:20:58;4.60;;;4.10;;
40995;SDS011;26723;57.478;12.066;2023-04-24T18:24:07;4.70;;;4.30;;
40995;SDS011;26723;57.478;12.066;2023-04-24T18:27:16;4.67;;;4.33;;
40995;SDS011;26723;57.478;12.066;2023-04-24T18:30:24;4.53;;;4.13;;
40995;SDS011;26723;57.478;12.066;2023-04-24T18:33:35;4.13;;;3.83;;
40995;SDS011;26723;57.478;12.066;2023-04-24T18:36:43;4.70;;;4.23;;
40995;SDS011;26723;57.478;12.066;2023-04-24T18:39:52;4.47;;;3.57;;
40995;SDS011;26723;57.478;12.066;2023-04-24T18:43:01;3.87;;;3.57;;
40995;SDS011;26723;57.478;12.066;2023-04-24T18:46:10;3.77;;;3.47;;
40995;SDS011;26723;57.478;12.066;2023-04-24T18:49:20;4.27;;;3.70;;
40995;SDS011;26723;57.478;12.066;2023-04-24T18:52:28;3.97;;;3.67;;